Time;durP1;ratioP1;P1;durP2;ratioP2;P2;SDS_P1;SDS_P2;PMS_P1;PMS_P2;Temp;Humidity;BMP_temperature;BMP_pressure;BME280_temperature;BME280_humidity;BME280_pressure;Samples;Min_cycle;Max_cycle;Signal;HPM_P1;HPM_P2
2021/12/03 00:00:45;;;;;;;51.53;25.85;;;;;;;1.50;100.00;100707.34;5034028;28;20493;-73
2021/12/03 00:03:12;;;;;;;44.88;23.15;;;;;;;1.44;100.00;100692.31;5030888;28;20060;-72
2021/12/03 00:05:38;;;;;;;50.22;25.73;;;;;;;1.47;100.00;100703.38;5039771;28;20060;-73
2021/12/03 00:08:06;;;;;;;41.85;22.10;;;;;;;1.40;100.00;100697.66;5042206;28;20127;-73
2021/12/03 00:10:34;;;;;;;51.83;25.90;;;;;;;1.38;100.00;100686.28;5038337;28;20144;-74
2021/12/03 00:13:04;;;;;;;48.35;24.27;;;;;;;1.31;100.00;100682.50;5037379;28;20084;-74
2021/12/03 00:15:31;;;;;;;42.00;22.45;;;;;;;1.32;100.00;100695.81;5037685;28;20312;-73
2021/12/03 00:17:58;;;;;;;48.70;24.20;;;;;;;1.32;100.00;100701.25;5040171;28;20145;-72
2021/12/03 00:20:26;;;;;;;44.05;24.15;;;;;;;1.27;100.00;100696.03;5044178;28;20159;-75
2021/12/03 00:22:57;;;;;;;34.10;15.40;;;;;;;1.26;100.00;100707.28;5043285;28;20132;-75
2021/12/03 00:25:24;;;;;;;45.15;25.20;;;;;;;1.26;100.00;100701.81;5047158;28;20110;-76
2021/12/03 00:27:51;;;;;;;44.67;21.35;;;;;;;1.20;100.00;100705.88;5046515;28;20749;-73
2021/12/03 00:30:19;;;;;;;44.33;24.45;;;;;;;1.11;100.00;100697.00;5048281;28;20203;-75
2021/12/03 00:32:46;;;;;;;50.30;25.17;;;;;;;1.14;100.00;100709.94;5047135;28;20156;-73
2021/12/03 00:35:15;;;;;;;38.95;16.95;;;;;;;1.04;100.00;100710.38;5046806;28;20045;-73
2021/12/03 00:37:43;;;;;;;50.17;26.13;;;;;;;1.09;100.00;100718.31;5044257;28;20072;-74
2021/12/03 00:40:12;;;;;;;50.42;26.77;;;;;;;1.08;100.00;100705.84;5048364;28;20598;-75
2021/12/03 00:42:40;;;;;;;49.72;26.45;;;;;;;1.04;100.00;100700.25;5040459;28;20128;-73
2021/12/03 00:45:09;;;;;;;45.65;25.80;;;;;;;1.00;100.00;100696.59;5047432;28;20052;-74
2021/12/03 00:47:35;;;;;;;45.95;26.35;;;;;;;0.96;100.00;100703.03;5047268;28;20049;-75
2021/12/03 00:50:04;;;;;;;46.30;25.35;;;;;;;0.92;100.00;100702.94;5045117;28;20139;-75
2021/12/03 00:52:31;;;;;;;49.22;27.75;;;;;;;0.93;100.00;100693.63;5043335;28;20049;-74
2021/12/03 00:54:57;;;;;;;45.92;24.45;;;;;;;0.86;100.00;100687.91;5046957;28;20088;-74
2021/12/03 00:57:24;;;;;;;49.78;25.98;;;;;;;0.83;100.00;100683.13;5049147;28;20075;-74
2021/12/03 00:59:51;;;;;;;48.47;28.38;;;;;;;0.85;100.00;100688.25;5046044;28;20121;-73
2021/12/03 01:02:17;;;;;;;47.72;27.85;;;;;;;0.88;100.00;100709.38;5038918;28;20144;-73
2021/12/03 01:04:46;;;;;;;55.63;30.15;;;;;;;0.87;100.00;100713.25;5041593;28;20060;-76
2021/12/03 01:07:15;;;;;;;31.33;14.13;;;;;;;0.83;100.00;100721.25;5037180;28;20140;-73
2021/12/03 01:09:43;;;;;;;40.55;20.83;;;;;;;0.80;100.00;100718.38;5042950;28;20052;-74
2021/12/03 01:12:10;;;;;;;47.15;25.23;;;;;;;0.82;100.00;100719.69;5043542;28;20044;-73
2021/12/03 01:14:39;;;;;;;43.60;23.13;;;;;;;0.79;100.00;100720.34;5044026;28;20147;-74
2021/12/03 01:17:06;;;;;;;16.90;9.13;;;;;;;0.78;100.00;100729.66;5039837;28;20056;-73
2021/12/03 01:19:33;;;;;;;38.50;20.83;;;;;;;0.83;100.00;100737.59;5045177;28;20037;-73
2021/12/03 01:21:59;;;;;;;48.15;28.92;;;;;;;0.85;100.00;100742.72;5027481;28;20120;-74
2021/12/03 01:24:26;;;;;;;25.83;13.85;;;;;;;0.84;100.00;100743.88;5032488;28;20079;-73
2021/12/03 01:26:54;;;;;;;54.67;30.30;;;;;;;0.89;100.00;100740.94;5032941;28;20404;-74
2021/12/03 01:29:25;;;;;;;10.32;7.00;;;;;;;0.88;100.00;100750.22;5031186;28;20508;-75
2021/12/03 01:31:54;;;;;;;29.38;14.43;;;;;;;0.93;100.00;100758.19;5038256;28;20557;-74
2021/12/03 01:34:21;;;;;;;28.25;11.82;;;;;;;0.98;100.00;100756.06;5029830;28;20037;-75
2021/12/03 01:36:48;;;;;;;13.80;6.15;;;;;;;0.98;100.00;100747.13;5029809;28;20061;-75
2021/12/03 01:39:15;;;;;;;45.20;28.15;;;;;;;1.07;100.00;100742.38;5038226;28;20041;-73
2021/12/03 01:41:41;;;;;;;26.58;13.95;;;;;;;1.07;100.00;100740.47;5029946;28;20076;-74
2021/12/03 01:44:08;;;;;;;46.47;31.65;;;;;;;1.18;100.00;100738.13;5029750;28;20501;-73
2021/12/03 01:46:36;;;;;;;40.33;24.95;;;;;;;1.13;100.00;100730.97;5027532;28;20137;-73
2021/12/03 01:49:04;;;;;;;28.52;15.05;;;;;;;1.16;100.00;100737.66;5029524;28;20129;-74
2021/12/03 01:51:31;;;;;;;25.75;11.35;;;;;;;1.15;100.00;100744.25;5022556;28;20058;-74
2021/12/03 01:53:58;;;;;;;24.20;13.02;;;;;;;1.19;100.00;100745.16;5039692;28;20053;-74
2021/12/03 01:56:24;;;;;;;20.20;10.15;;;;;;;1.29;100.00;100752.94;5028346;28;20049;-74
2021/12/03 01:58:52;;;;;;;14.25;7.28;;;;;;;1.28;100.00;100743.97;5030464;28;20064;-74
2021/12/03 02:01:24;;;;;;;17.60;9.73;;;;;;;1.33;100.00;100751.94;5027574;28;20083;-74
2021/12/03 02:03:54;;;;;;;27.20;13.40;;;;;;;1.36;100.00;100755.91;5019032;28;20045;-74
2021/12/03 02:06:22;;;;;;;53.90;32.63;;;;;;;1.41;100.00;100747.53;5036439;28;20557;-76
2021/12/03 02:08:49;;;;;;;49.85;30.98;;;;;;;1.45;100.00;100749.25;5028155;28;20495;-72
2021/12/03 02:11:16;;;;;;;43.95;25.83;;;;;;;1.45;100.00;100751.19;5027881;28;20141;-74
2021/12/03 02:13:43;;;;;;;57.35;31.05;;;;;;;1.48;100.00;100739.63;5027881;28;20084;-73
2021/12/03 02:16:11;;;;;;;22.52;13.48;;;;;;;1.46;100.00;100739.94;5030312;28;20481;-73
2021/12/03 02:18:38;;;;;;;60.53;34.85;;;;;;;1.49;100.00;100736.53;5030959;28;20053;-73
2021/12/03 02:21:07;;;;;;;55.50;30.27;;;;;;;1.52;100.00;100727.69;5030555;28;20308;-73
2021/12/03 02:23:34;;;;;;;57.78;27.65;;;;;;;1.52;100.00;100718.72;5021588;28;20057;-74
2021/12/03 02:26:02;;;;;;;38.00;17.67;;;;;;;1.50;100.00;100729.16;5020668;28;20588;-74
2021/12/03 02:28:35;;;;;;;45.63;20.50;;;;;;;1.53;100.00;100736.66;5026080;28;20141;-71
2021/12/03 02:31:04;;;;;;;62.78;31.20;;;;;;;1.57;100.00;100723.94;5023992;28;20524;-73
2021/12/03 02:33:33;;;;;;;55.58;24.98;;;;;;;1.63;100.00;100733.50;5024650;28;20426;-73
2021/12/03 02:35:59;;;;;;;55.45;28.63;;;;;;;1.61;100.00;100724.88;5029388;28;20053;-73
2021/12/03 02:38:27;;;;;;;51.95;24.45;;;;;;;1.65;100.00;100733.97;5031713;28;20731;-73
2021/12/03 02:40:55;;;;;;;30.13;15.88;;;;;;;1.67;100.00;100735.22;5024766;28;20049;-73
2021/12/03 02:43:22;;;;;;;41.47;19.98;;;;;;;1.64;100.00;100738.63;5020696;28;20136;-73
2021/12/03 02:45:52;;;;;;;7.70;4.85;;;;;;;1.72;100.00;100735.00;5033271;28;20102;-73
2021/12/03 02:48:20;;;;;;;21.75;11.32;;;;;;;1.72;100.00;100734.22;5029005;28;20053;-74
2021/12/03 02:50:48;;;;;;;39.28;13.95;;;;;;;1.76;100.00;100733.19;5028471;28;20082;-75
2021/12/03 02:53:15;;;;;;;48.90;22.90;;;;;;;1.78;100.00;100727.41;5028773;28;20821;-75
2021/12/03 02:55:42;;;;;;;47.85;23.70;;;;;;;1.80;100.00;100723.22;5021099;28;20064;-73
2021/12/03 02:58:09;;;;;;;44.08;19.35;;;;;;;1.79;100.00;100727.06;5039055;28;20731;-74
2021/12/03 03:00:36;;;;;;;33.90;16.50;;;;;;;1.82;100.00;100731.06;5030072;28;20527;-74
2021/12/03 03:03:03;;;;;;;48.90;22.60;;;;;;;1.84;100.00;100732.31;5035363;28;20559;-75
2021/12/03 03:05:31;;;;;;;38.25;17.55;;;;;;;1.86;100.00;100742.88;5028698;28;20057;-73
2021/12/03 03:07:58;;;;;;;62.47;30.27;;;;;;;1.82;100.00;100740.03;5019807;28;20422;-74
2021/12/03 03:10:28;;;;;;;46.78;20.67;;;;;;;1.86;100.00;100743.66;5029250;28;20084;-73
2021/12/03 03:12:57;;;;;;;36.53;17.25;;;;;;;1.89;100.00;100743.00;5033248;28;20137;-74
2021/12/03 03:15:24;;;;;;;37.97;18.25;;;;;;;1.89;100.00;100744.94;5047872;28;20139;-74
2021/12/03 03:17:52;;;;;;;46.67;22.17;;;;;;;1.92;100.00;100749.69;5040525;28;20110;-75
2021/12/03 03:20:19;;;;;;;60.08;22.25;;;;;;;1.94;100.00;100758.34;5036849;28;20505;-73
2021/12/03 03:22:47;;;;;;;59.92;26.98;;;;;;;1.90;100.00;100758.25;5029608;28;20053;-75
2021/12/03 03:25:18;;;;;;;53.53;24.85;;;;;;;1.92;100.00;100763.34;5027157;28;20559;-74
2021/12/03 03:27:45;;;;;;;70.20;32.65;;;;;;;1.87;100.00;100752.66;5042390;28;20051;-74
2021/12/03 03:30:14;;;;;;;30.80;14.75;;;;;;;1.98;100.00;100757.34;5023683;28;20131;-75
2021/12/03 03:32:42;;;;;;;53.13;21.73;;;;;;;1.99;100.00;100749.97;5044360;28;20128;-74
2021/12/03 03:35:09;;;;;;;68.47;33.55;;;;;;;1.88;100.00;100751.53;5041906;28;20124;-74
2021/12/03 03:37:35;;;;;;;59.45;24.67;;;;;;;1.92;100.00;100758.69;5041372;28;20631;-74
2021/12/03 03:40:04;;;;;;;68.40;27.70;;;;;;;1.91;100.00;100759.03;5031363;28;20047;-74
2021/12/03 03:42:31;;;;;;;73.82;34.25;;;;;;;1.90;100.00;100752.00;5029352;28;20693;-75
2021/12/03 03:44:57;;;;;;;61.90;27.98;;;;;;;1.91;100.00;100756.31;5027006;28;20176;-74
2021/12/03 03:47:24;;;;;;;48.25;22.42;;;;;;;1.92;100.00;100746.97;5028806;28;20140;-73
2021/12/03 03:49:51;;;;;;;69.53;29.38;;;;;;;1.93;100.00;100741.19;5028841;28;20065;-75
2021/12/03 03:52:17;;;;;;;74.60;30.67;;;;;;;1.89;100.00;100742.22;5028614;28;20088;-73
2021/12/03 03:54:44;;;;;;;72.82;31.45;;;;;;;1.90;100.00;100744.63;5045912;28;20152;-72
2021/12/03 03:57:10;;;;;;;49.08;20.85;;;;;;;1.96;100.00;100732.31;5030546;28;20072;-75
2021/12/03 03:59:37;;;;;;;43.17;19.13;;;;;;;1.98;100.00;100740.16;5030552;28;20141;-74
2021/12/03 04:02:04;;;;;;;53.45;22.45;;;;;;;1.93;100.00;100730.25;5032455;28;20132;-74
2021/12/03 04:04:31;;;;;;;60.72;24.75;;;;;;;1.98;100.00;100723.78;5048624;28;20057;-75
2021/12/03 04:06:58;;;;;;;32.72;15.77;;;;;;;2.01;100.00;100717.66;5040420;28;20478;-74
2021/12/03 04:09:24;;;;;;;30.92;15.10;;;;;;;2.02;100.00;100713.78;5041917;28;20038;-75
2021/12/03 04:11:51;;;;;;;61.83;22.55;;;;;;;2.01;100.00;100709.47;5027750;28;20163;-74
2021/12/03 04:14:17;;;;;;;59.97;24.38;;;;;;;1.96;100.00;100704.25;5032372;28;20052;-76
2021/12/03 04:16:44;;;;;;;52.42;23.30;;;;;;;2.06;100.00;100701.06;5047930;28;20061;-73
2021/12/03 04:19:11;;;;;;;47.58;20.45;;;;;;;2.02;100.00;100700.13;5035743;28;20565;-74
2021/12/03 04:21:37;;;;;;;56.13;24.63;;;;;;;2.06;100.00;100687.44;5043003;28;20777;-74
2021/12/03 04:24:05;;;;;;;36.58;19.70;;;;;;;2.07;100.00;100698.00;5048202;28;20523;-74
2021/12/03 04:26:31;;;;;;;74.22;28.48;;;;;;;2.04;100.00;100695.16;5044193;28;20081;-74
2021/12/03 04:28:58;;;;;;;49.97;22.20;;;;;;;2.10;100.00;100701.97;5031966;28;20136;-75
2021/12/03 04:31:25;;;;;;;18.95;10.32;;;;;;;2.17;100.00;100702.22;5047535;28;20072;-74
2021/12/03 04:33:52;;;;;;;76.50;31.92;;;;;;;2.20;100.00;100709.72;5034132;28;20057;-74
2021/12/03 04:36:19;;;;;;;49.40;21.25;;;;;;;2.17;100.00;100700.25;5029198;28;20073;-72
2021/12/03 04:38:45;;;;;;;45.17;21.45;;;;;;;2.14;100.00;100697.44;5029887;28;20529;-74
2021/12/03 04:41:12;;;;;;;23.80;11.00;;;;;;;2.20;100.00;100693.34;5028019;28;20509;-74
2021/12/03 04:43:38;;;;;;;52.05;21.40;;;;;;;2.24;100.00;100686.06;5028963;28;20498;-75
2021/12/03 04:46:05;;;;;;;50.90;20.30;;;;;;;2.18;100.00;100679.22;5045436;28;20083;-74
2021/12/03 04:48:32;;;;;;;47.42;19.45;;;;;;;2.20;100.00;100685.16;5035866;28;20051;-74
2021/12/03 04:50:59;;;;;;;58.58;23.15;;;;;;;2.22;100.00;100674.66;5027174;28;20479;-73
2021/12/03 04:53:26;;;;;;;47.83;17.63;;;;;;;2.22;100.00;100672.75;5028775;28;20136;-74
2021/12/03 04:55:53;;;;;;;27.77;13.05;;;;;;;2.27;100.00;100674.44;5029299;28;20050;-76
2021/12/03 04:58:20;;;;;;;40.03;14.93;;;;;;;2.29;100.00;100680.34;5028399;28;20119;-74
2021/12/03 05:00:53;;;;;;;37.95;16.33;;;;;;;2.30;100.00;100677.28;5027105;28;20144;-75
2021/12/03 05:03:24;;;;;;;17.15;7.55;;;;;;;2.34;100.00;100672.75;5029105;28;20060;-73
2021/12/03 05:05:56;;;;;;;60.20;27.10;;;;;;;2.29;100.00;100681.16;5032498;28;20123;-75
2021/12/03 05:08:25;;;;;;;40.38;16.52;;;;;;;2.35;100.00;100682.53;5031237;28;20137;-72
2021/12/03 05:10:53;;;;;;;36.15;17.38;;;;;;;2.37;100.00;100695.81;5051754;28;20079;-74
2021/12/03 05:13:25;;;;;;;20.27;8.82;;;;;;;2.37;100.00;100693.09;5036914;28;20077;-73
2021/12/03 05:15:52;;;;;;;67.53;25.17;;;;;;;2.40;100.00;100692.41;5031062;28;20060;-74
2021/12/03 05:18:21;;;;;;;58.08;24.77;;;;;;;2.34;100.00;100694.59;5030810;28;20417;-72
2021/12/03 05:20:51;;;;;;;44.85;21.27;;;;;;;2.40;100.00;100700.59;5039285;28;20508;-73
2021/12/03 05:23:19;;;;;;;32.03;15.45;;;;;;;2.43;100.00;100706.16;5031398;28;20613;-71
2021/12/03 05:25:47;;;;;;;54.67;23.50;;;;;;;2.41;100.00;100704.91;5032099;28;20053;-73
2021/12/03 05:28:15;;;;;;;53.85;23.23;;;;;;;2.54;100.00;100698.31;5029545;28;20068;-71
2021/12/03 05:30:47;;;;;;;55.97;23.83;;;;;;;2.41;100.00;100691.28;5031751;28;20080;-75
2021/12/03 05:33:16;;;;;;;42.45;17.50;;;;;;;2.52;100.00;100703.31;5030591;28;20049;-74
2021/12/03 05:35:43;;;;;;;19.48;9.98;;;;;;;2.53;100.00;100702.16;5031060;28;20059;-75
2021/12/03 05:38:10;;;;;;;38.17;15.82;;;;;;;2.55;100.00;100697.16;5029112;28;20050;-74
2021/12/03 05:40:36;;;;;;;46.30;18.13;;;;;;;2.45;100.00;100711.28;5027728;28;20140;-72
2021/12/03 05:43:03;;;;;;;64.70;31.02;;;;;;;2.44;100.00;100707.75;5029474;28;20136;-74
2021/12/03 05:45:32;;;;;;;62.40;29.88;;;;;;;2.47;100.00;100703.56;5023305;28;20045;-74
2021/12/03 05:47:59;;;;;;;24.50;10.98;;;;;;;2.57;100.00;100698.41;5031022;28;20053;-75
2021/12/03 05:50:28;;;;;;;62.38;26.55;;;;;;;2.52;100.00;100706.03;5045518;28;20049;-74
2021/12/03 05:52:57;;;;;;;55.60;24.23;;;;;;;2.54;100.00;100709.25;5041552;28;20132;-73
2021/12/03 05:55:24;;;;;;;45.30;15.90;;;;;;;2.64;100.00;100697.84;5032395;28;20087;-73
2021/12/03 05:57:51;;;;;;;39.00;15.07;;;;;;;2.65;100.00;100692.03;5051170;28;20056;-75
2021/12/03 06:00:35;;;;;;;38.92;17.30;;;;;;;2.65;100.00;100693.97;5037064;28;20049;-74
2021/12/03 06:03:03;;;;;;;56.28;18.25;;;;;;;2.67;100.00;100695.19;5050665;28;20516;-74
2021/12/03 06:05:30;;;;;;;40.20;18.33;;;;;;;2.77;100.00;100690.41;5046687;28;20079;-73
2021/12/03 06:07:57;;;;;;;40.40;16.55;;;;;;;2.65;100.00;100681.09;5031310;28;20553;-73
2021/12/03 06:10:25;;;;;;;34.10;16.33;;;;;;;2.74;100.00;100695.41;5029846;28;20449;-74
2021/12/03 06:12:52;;;;;;;34.92;14.63;;;;;;;2.77;100.00;100685.75;5028485;28;20161;-74
2021/12/03 06:15:19;;;;;;;58.25;23.45;;;;;;;2.82;100.00;100684.69;5045046;28;20498;-73
2021/12/03 06:17:47;;;;;;;37.25;16.75;;;;;;;2.78;100.00;100679.13;5029237;28;20056;-76
2021/12/03 06:20:16;;;;;;;34.05;12.80;;;;;;;2.78;100.00;100677.19;5046142;28;20040;-72
2021/12/03 06:22:43;;;;;;;53.42;20.73;;;;;;;2.85;100.00;100684.81;5038934;28;20053;-74
2021/12/03 06:25:11;;;;;;;26.27;12.65;;;;;;;2.84;100.00;100685.94;5042838;28;20053;-74
2021/12/03 06:27:40;;;;;;;50.38;21.42;;;;;;;2.92;100.00;100684.19;5030918;28;20049;-74
2021/12/03 06:30:10;;;;;;;35.33;14.52;;;;;;;2.82;100.00;100690.94;5029030;28;20063;-75
2021/12/03 06:32:38;;;;;;;49.95;24.05;;;;;;;2.78;100.00;100690.06;5019478;28;20060;-74
2021/12/03 06:35:07;;;;;;;21.02;9.07;;;;;;;2.88;100.00;100696.97;5028529;28;20913;-74
2021/12/03 06:37:34;;;;;;;55.05;25.27;;;;;;;2.78;100.00;100694.72;5027139;28;20060;-74
2021/12/03 06:40:02;;;;;;;47.72;21.15;;;;;;;2.82;100.00;100701.06;5018427;28;20137;-76
2021/12/03 06:42:29;;;;;;;19.73;8.52;;;;;;;2.90;100.00;100689.22;5029801;28;20053;-74
2021/12/03 06:44:55;;;;;;;39.13;17.77;;;;;;;2.87;100.00;100689.91;5019630;28;20053;-74
2021/12/03 06:47:22;;;;;;;27.15;13.65;;;;;;;2.89;100.00;100695.81;5024872;28;20053;-75
2021/12/03 06:49:49;;;;;;;37.55;17.50;;;;;;;2.85;100.00;100695.72;5020376;28;20053;-75
2021/12/03 06:52:16;;;;;;;37.63;17.30;;;;;;;2.88;100.00;100691.50;5022535;28;20099;-75
2021/12/03 06:54:51;;;;;;;54.92;25.27;;;;;;;2.88;100.00;100699.69;5048810;28;20466;-74
2021/12/03 06:57:17;;;;;;;50.33;21.58;;;;;;;2.90;100.00;100691.97;5025811;28;20061;-75
2021/12/03 06:59:44;;;;;;;29.40;13.20;;;;;;;2.93;100.00;100678.38;5030465;28;20490;-74
2021/12/03 07:02:12;;;;;;;46.85;23.33;;;;;;;2.88;100.00;100686.84;5032538;28;20052;-74
2021/12/03 07:04:40;;;;;;;61.33;24.88;;;;;;;2.98;100.00;100678.16;5035530;28;20503;-73
2021/12/03 07:07:07;;;;;;;54.58;26.15;;;;;;;2.84;100.00;100675.03;5024174;28;20072;-74
2021/12/03 07:09:34;;;;;;;46.22;20.67;;;;;;;2.89;100.00;100671.22;5022683;28;20053;-76
2021/12/03 07:12:00;;;;;;;53.75;24.60;;;;;;;2.88;100.00;100681.38;5029715;28;20567;-74
2021/12/03 07:14:27;;;;;;;40.60;17.65;;;;;;;2.97;100.00;100675.78;5037830;28;20069;-76
2021/12/03 07:16:53;;;;;;;48.88;17.38;;;;;;;2.98;100.00;100675.44;5046960;28;20078;-72
2021/12/03 07:19:20;;;;;;;51.78;21.30;;;;;;;2.94;100.00;100680.00;5035544;28;20045;-73
2021/12/03 07:21:46;;;;;;;53.10;21.83;;;;;;;3.00;100.00;100686.00;5029595;28;20608;-75
2021/12/03 07:24:13;;;;;;;46.60;15.05;;;;;;;3.00;100.00;100680.53;5028819;28;20124;-74
2021/12/03 07:26:39;;;;;;;25.50;9.77;;;;;;;3.02;100.00;100679.03;5028502;28;20045;-74
2021/12/03 07:29:06;;;;;;;47.47;19.77;;;;;;;3.00;100.00;100683.28;5028545;28;20049;-75
2021/12/03 07:31:33;;;;;;;50.20;14.85;;;;;;;3.05;100.00;100683.81;5028225;28;20059;-75
2021/12/03 07:34:00;;;;;;;44.20;18.27;;;;;;;3.08;100.00;100666.72;5035933;28;20196;-74
2021/12/03 07:36:26;;;;;;;48.60;18.27;;;;;;;3.13;100.00;100677.41;5032144;28;20059;-75
2021/12/03 07:38:53;;;;;;;48.90;20.98;;;;;;;3.08;100.00;100660.47;5030556;28;20140;-76
2021/12/03 07:41:20;;;;;;;40.55;17.83;;;;;;;3.19;100.00;100675.22;5026234;28;20080;-74
2021/12/03 07:43:46;;;;;;;35.65;13.45;;;;;;;3.17;100.00;100680.25;5021326;28;20058;-73
2021/12/03 07:46:15;;;;;;;16.83;8.68;;;;;;;3.23;100.00;100679.63;5037159;28;20136;-73
2021/12/03 07:48:46;;;;;;;57.88;23.40;;;;;;;3.18;100.00;100673.63;5028786;28;20556;-77
2021/12/03 07:51:17;;;;;;;47.05;21.52;;;;;;;3.21;100.00;100671.00;5029148;28;20390;-77
2021/12/03 07:53:44;;;;;;;62.13;27.55;;;;;;;3.24;100.00;100666.78;5030220;28;20137;-79
2021/12/03 07:56:11;;;;;;;45.90;17.50;;;;;;;3.29;100.00;100659.09;5035115;28;20502;-75
2021/12/03 07:58:38;;;;;;;40.08;14.98;;;;;;;3.34;100.00;100661.56;5048075;28;20080;-75
2021/12/03 08:01:04;;;;;;;38.70;16.83;;;;;;;3.33;100.00;100654.53;5032550;28;20583;-73
2021/12/03 08:03:32;;;;;;;39.53;15.63;;;;;;;3.41;100.00;100659.03;5029496;28;20049;-76
2021/12/03 08:06:04;;;;;;;46.22;19.70;;;;;;;3.39;100.00;100669.53;5029682;28;20136;-75
2021/12/03 08:08:31;;;;;;;26.75;9.95;;;;;;;3.49;100.00;100662.75;5035403;28;20049;-78
2021/12/03 08:10:58;;;;;;;49.42;14.98;;;;;;;3.49;100.00;100674.50;5028624;28;20045;-74
2021/12/03 08:13:24;;;;;;;18.45;8.48;;;;;;;3.55;100.00;100662.16;5028338;28;20058;-76
2021/12/03 08:15:51;;;;;;;29.10;11.68;;;;;;;3.56;100.00;100673.88;5033517;28;20891;-77
2021/12/03 08:18:17;;;;;;;36.60;13.98;;;;;;;3.59;100.00;100663.03;5027876;28;20081;-77
2021/12/03 08:20:45;;;;;;;48.17;21.58;;;;;;;3.54;100.00;100663.28;5022342;28;20069;-79
2021/12/03 08:23:12;;;;;;;35.38;13.75;;;;;;;3.64;100.00;100668.22;5030534;28;20164;-78
2021/12/03 08:25:39;;;;;;;46.55;19.02;;;;;;;3.67;100.00;100678.47;5032997;28;20110;-78
2021/12/03 08:28:07;;;;;;;46.47;19.85;;;;;;;3.67;100.00;100686.69;5043403;28;20057;-78
2021/12/03 08:30:33;;;;;;;27.58;9.88;;;;;;;3.77;100.00;100671.69;5047400;28;20455;-76
2021/12/03 08:33:00;;;;;;;28.10;10.00;;;;;;;3.77;100.00;100672.47;5042695;28;20057;-77
2021/12/03 08:35:27;;;;;;;36.17;13.48;;;;;;;3.85;100.00;100674.22;5030189;28;20629;-77
2021/12/03 08:37:53;;;;;;;32.40;14.25;;;;;;;3.78;100.00;100678.75;5032122;28;20137;-79
2021/12/03 08:40:21;;;;;;;26.92;9.73;;;;;;;4.00;100.00;100683.59;5033094;28;20068;-72
2021/12/03 08:42:49;;;;;;;32.88;14.57;;;;;;;3.96;100.00;100683.53;5038405;28;20156;-75
2021/12/03 08:45:18;;;;;;;33.60;14.80;;;;;;;3.89;100.00;100677.06;5022288;28;20111;-75
2021/12/03 08:47:49;;;;;;;29.60;9.63;;;;;;;3.92;100.00;100679.88;5036384;28;20139;-76
2021/12/03 08:50:25;;;;;;;32.25;12.30;;;;;;;3.92;100.00;100671.66;5034872;28;20045;-76
2021/12/03 08:55:19;;;;;;;29.42;9.32;;;;;;;3.93;100.00;100667.00;5043801;28;20048;-74
2021/12/03 08:57:45;;;;;;;24.77;8.23;;;;;;;3.92;100.00;100659.94;5034378;28;20060;-73
2021/12/03 09:00:19;;;;;;;18.40;8.23;;;;;;;3.93;100.00;100645.91;5029750;28;20050;-74
2021/12/03 09:02:46;;;;;;;32.67;9.52;;;;;;;3.91;100.00;100652.91;5031296;28;20136;-72
2021/12/03 09:05:13;;;;;;;15.63;5.50;;;;;;;3.97;100.00;100651.44;5028379;28;20085;-74
2021/12/03 09:07:41;;;;;;;8.48;2.83;;;;;;;3.97;100.00;100648.72;5039861;28;20053;-74
2021/12/03 09:10:18;;;;;;;22.92;6.68;;;;;;;3.95;100.00;100643.59;5039157;28;20039;-73
2021/12/03 09:12:45;;;;;;;24.05;9.43;;;;;;;3.95;100.00;100638.13;5032538;28;20520;-73
2021/12/03 09:15:15;;;;;;;18.58;4.80;;;;;;;3.98;100.00;100636.63;5038442;28;20057;-73
2021/12/03 09:23:23;;;;;;;17.17;5.63;;;;;;;4.02;100.00;100632.03;5030067;28;20096;-75
2021/12/03 09:25:48;;;;;;;17.23;4.88;;;;;;;4.05;100.00;100637.59;5028727;28;20080;-74
2021/12/03 09:28:19;;;;;;;18.17;4.18;;;;;;;4.09;100.00;100635.72;5026803;28;20460;-74
2021/12/03 09:30:47;;;;;;;20.77;5.90;;;;;;;4.12;100.00;100637.75;5020339;28;20053;-77
2021/12/03 09:33:17;;;;;;;12.98;4.35;;;;;;;4.16;100.00;100624.16;5022140;28;20099;-74
2021/12/03 09:35:47;;;;;;;21.40;5.63;;;;;;;4.22;99.79;100628.97;5029686;28;20132;-73
2021/12/03 09:38:14;;;;;;;21.65;7.07;;;;;;;4.18;99.54;100630.84;5043334;28;20045;-74
2021/12/03 09:40:41;;;;;;;32.65;7.57;;;;;;;4.21;99.06;100646.56;5028959;28;20128;-74
2021/12/03 09:43:08;;;;;;;22.92;6.03;;;;;;;4.30;98.49;100633.50;5028598;28;20503;-72
2021/12/03 09:45:37;;;;;;;15.98;5.70;;;;;;;4.42;98.64;100618.88;5024364;28;20049;-74
2021/12/03 09:48:33;;;;;;;24.77;5.53;;;;;;;4.39;98.29;100625.06;5011324;28;20053;-74
2021/12/03 09:50:51;;;;;;;25.63;7.65;;;;;;;4.39;97.68;100619.59;5015568;28;20147;-77
2021/12/03 09:53:29;;;;;;;20.58;7.85;;;;;;;4.42;97.18;100619.66;5018014;28;20049;-74
2021/12/03 09:55:55;;;;;;;10.77;3.85;;;;;;;4.54;97.20;100616.81;5039805;28;20069;-74
2021/12/03 09:58:54;;;;;;;;;;;;;;;;;;;;;
2021/12/03 10:01:11;;;;;;;7.15;3.13;;;;;;;4.55;97.03;100592.91;5025713;28;20164;-75
2021/12/03 10:04:48;;;;;;;20.05;5.63;;;;;;;4.57;95.82;100609.81;5026335;28;20057;-75
2021/12/03 10:15:09;;;;;;;21.95;6.35;;;;;;;4.60;94.35;100631.81;5023164;28;20658;-76
2021/12/03 10:39:15;;;;;;;;;;;;;;;;;;;;;
2021/12/03 10:50:25;;;;;;;29.83;8.00;;;;;;;4.70;93.45;100559.94;5021940;28;20107;-75
2021/12/03 11:01:44;;;;;;;22.05;5.57;;;;;;;4.82;93.58;100537.88;5027539;28;20083;-75
2021/12/03 11:54:00;;;;;;;4.70;2.28;;;;;;;5.03;92.32;100469.72;5026618;28;20045;-76
2021/12/03 13:04:21;;;;;;;11.70;3.22;;;;;;;5.64;85.35;100312.28;5027753;28;20051;-75
2021/12/03 14:08:53;;;;;;;13.27;4.75;;;;;;;5.78;82.91;100236.38;5028558;28;20140;-77
2021/12/03 14:41:38;;;;;;;12.57;3.33;;;;;;;5.77;80.14;100264.22;5030490;28;20045;-78
2021/12/03 14:55:39;;;;;;;12.32;3.38;;;;;;;5.54;85.27;100247.88;4988455;28;20542;-75
2021/12/03 14:58:14;;;;;;;11.73;3.38;;;;;;;5.54;85.71;100241.59;5020450;28;20064;-75
2021/12/03 15:03:39;;;;;;;8.40;3.10;;;;;;;5.35;88.22;100256.28;5024964;28;20491;-76
2021/12/03 15:09:21;;;;;;;;;;;;;;;;;;;;;
2021/12/03 15:35:42;;;;;;;8.65;3.83;;;;;;;4.61;100.00;100218.81;5028868;28;20076;-76
2021/12/03 15:41:21;;;;;;;15.15;4.13;;;;;;;4.54;100.00;100214.03;5028690;28;20053;-77
2021/12/03 16:19:05;;;;;;;;;;;;;;;;;;;;;
2021/12/03 16:43:42;;;;;;;5.70;2.78;;;;;;;3.94;100.00;100192.31;5017340;28;20132;-74
2021/12/03 16:43:49;;;;;;;17.83;6.00;;;;;;;3.94;100.00;100193.13;5025407;28;20385;-74
2021/12/03 16:51:41;;;;;;;14.45;6.00;;;;;;;3.94;100.00;100184.09;5029301;28;20045;-77
2021/12/03 16:54:10;;;;;;;9.77;3.63;;;;;;;4.00;100.00;100179.91;5014876;28;20061;-74
2021/12/03 16:56:53;;;;;;;10.05;4.40;;;;;;;3.92;100.00;100170.78;5024878;28;20743;-74
2021/12/03 16:59:20;;;;;;;16.73;5.28;;;;;;;3.95;100.00;100181.00;5026889;28;20073;-73
2021/12/03 17:02:05;;;;;;;16.08;6.38;;;;;;;3.92;100.00;100168.03;5021718;28;20104;-75
2021/12/03 17:49:54;;;;;;;18.23;6.10;;;;;;;3.87;100.00;100137.47;5030074;28;20085;-73
2021/12/03 17:52:59;;;;;;;;;;;;;;;;;;;;;
2021/12/03 17:57:50;;;;;;;17.38;5.78;;;;;;;3.84;100.00;100128.03;5035549;28;20132;-74
2021/12/03 18:01:00;;;;;;;11.20;4.35;;;;;;;3.91;100.00;100128.16;5034251;28;20049;-76
2021/12/03 18:03:26;;;;;;;15.93;6.70;;;;;;;3.93;100.00;100127.78;5026790;28;20081;-73
2021/12/03 18:08:43;;;;;;;20.88;6.85;;;;;;;3.95;100.00;100120.78;5024237;28;20085;-77
2021/12/03 18:49:23;;;;;;;14.85;5.20;;;;;;;4.17;100.00;100040.56;5034633;28;20552;-74
2021/12/03 18:57:13;;;;;;;15.68;6.63;;;;;;;4.24;100.00;100035.19;5037995;28;20075;-75
2021/12/03 18:59:52;;;;;;;17.02;7.60;;;;;;;4.27;100.00;100044.59;5012661;28;20057;-75
2021/12/03 19:02:21;;;;;;;14.43;6.07;;;;;;;4.28;100.00;100019.59;5027714;28;20041;-75
2021/12/03 19:05:02;;;;;;;5.85;3.40;;;;;;;4.28;100.00;100011.38;5028159;28;20057;-76
2021/12/03 19:07:40;;;;;;;11.48;5.25;;;;;;;4.33;100.00;100010.25;5027568;28;20045;-75
2021/12/03 19:10:13;;;;;;;14.80;4.85;;;;;;;4.39;100.00;100006.03;5034884;28;20924;-76